Time;durP1;ratioP1;P1;durP2;ratioP2;P2;SDS_P1;SDS_P2;PMS_P1;PMS_P2;Temp;Humidity;BMP_temperature;BMP_pressure;BME280_temperature;BME280_humidity;BME280_pressure;Samples;Min_cycle;Max_cycle;Signal;HPM_P1;HPM_P2
2022/07/12 00:02:01;;;;;;;4.20;2.63;;;18.10;99.90;;;;;;4995304;28;20203;-84
2022/07/12 00:04:26;;;;;;;3.10;2.80;;;18.00;99.90;;;;;;4996450;28;20204;-84
2022/07/12 00:06:52;;;;;;;3.00;2.70;;;18.00;99.90;;;;;;4993701;28;20470;-83
2022/07/12 00:09:17;;;;;;;4.90;2.60;;;17.90;99.90;;;;;;4994925;28;20199;-83
2022/07/12 00:11:43;;;;;;;2.30;2.10;;;17.80;99.90;;;;;;4991734;28;20226;-82
2022/07/12 00:14:09;;;;;;;3.27;2.73;;;17.70;99.90;;;;;;4996446;28;20194;-84
2022/07/12 00:16:35;;;;;;;3.83;2.57;;;17.70;99.90;;;;;;4993793;28;20204;-83
2022/07/12 00:19:00;;;;;;;4.73;3.30;;;17.60;1.00;;;;;;4996272;28;20454;-84
2022/07/12 00:21:26;;;;;;;2.63;2.33;;;17.60;1.00;;;;;;4994732;28;20238;-85
2022/07/12 00:23:52;;;;;;;2.67;2.27;;;17.50;1.00;;;;;;4995041;28;20223;-84
2022/07/12 00:26:17;;;;;;;5.07;2.80;;;17.50;69.80;;;;;;4994867;28;20203;-84
2022/07/12 00:28:43;;;;;;;3.53;2.30;;;17.50;99.90;;;;;;4993370;28;20203;-84
2022/07/12 00:31:09;;;;;;;4.93;2.90;;;17.40;99.90;;;;;;4993538;28;20186;-84
2022/07/12 00:33:35;;;;;;;5.37;2.97;;;17.40;48.80;;;;;;4995786;28;20430;-85
2022/07/12 00:36:00;;;;;;;4.10;2.80;;;17.30;99.90;;;;;;4994727;28;20266;-84
2022/07/12 00:38:26;;;;;;;5.40;3.10;;;17.20;1.00;;;;;;4994805;28;20444;-84
2022/07/12 00:40:51;;;;;;;3.23;2.80;;;17.20;1.00;;;;;;4994360;28;20540;-85
2022/07/12 00:43:17;;;;;;;3.17;2.60;;;17.20;99.90;;;;;;4994985;28;20297;-83
2022/07/12 00:45:43;;;;;;;3.80;2.60;;;17.20;78.70;;;;;;4995657;28;20263;-83
2022/07/12 00:48:09;;;;;;;2.90;2.57;;;17.20;1.00;;;;;;4994134;28;20222;-84
2022/07/12 00:50:35;;;;;;;2.57;2.37;;;17.20;1.00;;;;;;4996173;28;20585;-84
2022/07/12 00:53:01;;;;;;;4.03;2.70;;;17.20;1.00;;;;;;4994379;28;20450;-83
2022/07/12 00:55:27;;;;;;;2.63;2.20;;;17.20;1.00;;;;;;4990032;28;20446;-84
2022/07/12 00:57:53;;;;;;;3.27;2.40;;;17.20;1.00;;;;;;4993663;28;20466;-84
2022/07/12 01:00:24;;;;;;;3.73;2.87;;;17.20;1.00;;;;;;4989102;28;20183;-83
2022/07/12 01:02:52;;;;;;;3.00;2.70;;;17.20;1.00;;;;;;4989135;28;20742;-84
2022/07/12 01:05:18;;;;;;;3.43;2.97;;;17.10;1.00;;;;;;4991727;28;20552;-84
2022/07/12 01:07:44;;;;;;;5.30;3.60;;;17.10;1.00;;;;;;4992422;28;20965;-84
2022/07/12 01:10:10;;;;;;;4.17;3.87;;;17.10;1.00;;;;;;4987698;28;20949;-84
2022/07/12 01:12:36;;;;;;;4.50;3.70;;;17.00;1.00;;;;;;4991055;28;20439;-85
2022/07/12 01:15:04;;;;;;;6.43;4.87;;;17.00;1.00;;;;;;4992943;28;20869;-84
2022/07/12 01:17:30;;;;;;;9.13;4.73;;;17.00;99.90;;;;;;4992550;28;20218;-86
2022/07/12 01:19:57;;;;;;;4.60;4.20;;;16.90;99.90;;;;;;4992476;28;20481;-84
2022/07/12 01:22:34;;;;;;;5.10;4.10;;;16.90;1.00;;;;;;4994036;28;20485;-85
2022/07/12 01:25:01;;;;;;;4.73;4.33;;;16.90;1.00;;;;;;4992951;28;20477;-84
2022/07/12 01:27:27;;;;;;;4.90;4.40;;;16.90;1.00;;;;;;4993907;28;20465;-85
2022/07/12 01:29:53;;;;;;;4.87;4.47;;;16.80;1.00;;;;;;4993591;28;21069;-86
2022/07/12 01:32:25;;;;;;;6.00;5.13;;;16.80;99.90;;;;;;4993398;28;20435;-85
2022/07/12 01:34:57;;;;;;;6.13;5.63;;;16.80;99.90;;;;;;5011089;28;20266;-87
2022/07/12 01:37:25;;;;;;;5.97;5.47;;;16.80;99.90;;;;;;4993578;28;20458;-83
2022/07/12 01:39:53;;;;;;;7.50;5.67;;;16.80;1.00;;;;;;4993659;28;20452;-84
2022/07/12 01:42:19;;;;;;;6.43;5.83;;;16.70;1.00;;;;;;5005884;28;20442;-84
2022/07/12 01:44:45;;;;;;;8.57;6.50;;;16.70;1.00;;;;;;4993160;28;20481;-84
2022/07/12 01:47:11;;;;;;;7.13;6.33;;;16.70;1.00;;;;;;4991183;28;20462;-85
2022/07/12 01:49:37;;;;;;;6.70;6.10;;;16.70;42.80;;;;;;4990813;28;20193;-84
2022/07/12 01:52:03;;;;;;;6.83;6.23;;;16.70;99.90;;;;;;4988906;28;20573;-84
2022/07/12 01:54:29;;;;;;;6.90;6.20;;;16.60;99.90;;;;;;4991712;28;20190;-84
2022/07/12 01:56:55;;;;;;;6.97;6.37;;;16.60;99.90;;;;;;4989901;28;20471;-85
2022/07/12 01:59:21;;;;;;;6.80;6.10;;;16.60;99.90;;;;;;5008108;28;20264;-85
2022/07/12 02:01:46;;;;;;;6.67;5.97;;;16.50;99.90;;;;;;4993263;28;21125;-84
2022/07/12 02:04:15;;;;;;;6.73;6.13;;;16.50;1.00;;;;;;4990570;28;20508;-84
2022/07/12 02:06:42;;;;;;;6.83;6.30;;;16.50;1.00;;;;;;4993085;28;20245;-85
2022/07/12 02:09:08;;;;;;;7.27;6.33;;;16.50;1.00;;;;;;4989339;28;20954;-85
2022/07/12 02:11:34;;;;;;;6.50;5.73;;;16.50;1.00;;;;;;4992689;28;20505;-86
2022/07/12 02:13:59;;;;;;;9.60;6.43;;;16.50;1.00;;;;;;4992200;28;20198;-86
2022/07/12 02:16:25;;;;;;;13.30;6.70;;;16.50;1.00;;;;;;4991119;28;20560;-84
2022/07/12 02:18:50;;;;;;;6.33;5.73;;;16.40;1.00;;;;;;4991365;28;20747;-84
2022/07/12 02:21:16;;;;;;;6.67;6.00;;;16.40;1.00;;;;;;4992117;28;20198;-85
2022/07/12 02:23:41;;;;;;;7.47;6.73;;;16.40;1.00;;;;;;4992594;28;20385;-84
2022/07/12 02:26:07;;;;;;;7.50;6.50;;;16.40;1.00;;;;;;4990802;28;20297;-85
2022/07/12 02:28:33;;;;;;;6.30;5.70;;;16.40;1.00;;;;;;4993651;28;20606;-85
2022/07/12 02:30:59;;;;;;;6.50;5.90;;;16.30;1.00;;;;;;4991445;28;20195;-85
2022/07/12 02:33:24;;;;;;;6.80;6.10;;;16.30;1.00;;;;;;4991306;28;20466;-84
2022/07/12 02:35:50;;;;;;;6.20;5.60;;;16.30;1.00;;;;;;4990552;28;20825;-84
2022/07/12 02:38:16;;;;;;;6.40;5.37;;;16.30;1.00;;;;;;4989696;28;20671;-84
2022/07/12 02:40:53;;;;;;;6.63;5.93;;;16.30;1.00;;;;;;4990305;28;20189;-84
2022/07/12 02:43:23;;;;;;;6.60;6.00;;;16.30;1.00;;;;;;4991219;28;20293;-84
2022/07/12 02:45:49;;;;;;;6.43;5.90;;;16.20;1.00;;;;;;4992155;28;20470;-84
2022/07/12 02:48:15;;;;;;;6.37;5.77;;;16.20;1.00;;;;;;4990760;28;20449;-84
2022/07/12 02:50:41;;;;;;;9.20;6.13;;;16.20;1.00;;;;;;5006650;28;20541;-83
2022/07/12 02:53:08;;;;;;;5.97;5.30;;;16.20;1.00;;;;;;4990469;28;20185;-84
2022/07/12 02:55:34;;;;;;;7.63;5.70;;;16.20;1.00;;;;;;4990661;28;20193;-84
2022/07/12 02:58:00;;;;;;;6.50;5.90;;;16.20;1.00;;;;;;4993313;28;20532;-85
2022/07/12 03:00:25;;;;;;;7.97;5.47;;;16.20;1.00;;;;;;4994148;28;20468;-85
2022/07/12 03:02:51;;;;;;;7.43;5.43;;;16.20;1.00;;;;;;4992707;28;20442;-82
2022/07/12 03:05:17;;;;;;;6.30;5.67;;;16.20;1.00;;;;;;4992623;28;20289;-84
2022/07/12 03:07:42;;;;;;;6.60;5.00;;;16.10;9.50;;;;;;4992203;28;20245;-86
2022/07/12 03:10:08;;;;;;;12.73;6.20;;;16.10;28.30;;;;;;4991969;28;20186;-85
2022/07/12 03:12:34;;;;;;;6.20;5.30;;;16.10;45.60;;;;;;5005676;28;20189;-84
2022/07/12 03:15:00;;;;;;;6.93;5.00;;;16.10;62.10;;;;;;4990257;28;20516;-88
2022/07/12 03:17:26;;;;;;;9.97;5.90;;;16.10;88.80;;;;;;4992049;28;20473;-85
2022/07/12 03:19:51;;;;;;;7.40;5.60;;;16.10;99.90;;;;;;4996063;28;20438;-84
2022/07/12 03:22:17;;;;;;;6.90;5.17;;;16.10;99.90;;;;;;4994696;28;21087;-84
2022/07/12 03:24:42;;;;;;;8.60;5.70;;;16.10;90.30;;;;;;4994869;28;20201;-84
2022/07/12 03:27:09;;;;;;;8.80;4.63;;;16.10;93.30;;;;;;4994894;28;20259;-85
2022/07/12 03:29:34;;;;;;;9.80;5.57;;;16.10;99.90;;;;;;4994535;28;20232;-86
2022/07/12 03:32:00;;;;;;;5.87;5.20;;;16.00;99.90;;;;;;4993834;28;20433;-85
2022/07/12 03:34:25;;;;;;;9.13;4.73;;;16.10;99.90;;;;;;5006868;28;20198;-84
2022/07/12 03:36:51;;;;;;;7.17;5.07;;;16.10;99.90;;;;;;4994464;28;20216;-85
2022/07/12 03:39:17;;;;;;;6.20;4.53;;;16.10;99.90;;;;;;4993102;28;20716;-83
2022/07/12 03:41:42;;;;;;;8.00;5.07;;;16.10;99.90;;;;;;4994908;28;20305;-85
2022/07/12 03:44:08;;;;;;;9.37;4.93;;;16.10;99.90;;;;;;4994950;28;20218;-85
2022/07/12 03:46:33;;;;;;;9.50;4.97;;;16.10;99.90;;;;;;4995348;28;20202;-84
2022/07/12 03:48:59;;;;;;;10.20;4.53;;;16.10;99.90;;;;;;4994717;28;20678;-87
2022/07/12 03:51:25;;;;;;;11.50;5.03;;;16.10;99.90;;;;;;4996852;28;20240;-84
2022/07/12 03:53:51;;;;;;;9.03;5.20;;;16.10;99.90;;;;;;4997541;28;20187;-85
2022/07/12 03:59:02;;;;;;;23.73;5.37;;;16.10;99.90;;;;;;4997280;28;20245;-85
2022/07/12 04:01:28;;;;;;;10.07;5.27;;;16.10;99.90;;;;;;4995754;28;20465;-84
2022/07/12 04:03:55;;;;;;;10.30;4.87;;;16.10;99.90;;;;;;4994148;28;20238;-84
2022/07/12 04:06:21;;;;;;;12.00;5.43;;;16.10;99.90;;;;;;4996511;28;20469;-86
2022/07/12 04:08:47;;;;;;;8.43;5.30;;;16.10;99.90;;;;;;4996946;28;20468;-84
2022/07/12 04:11:12;;;;;;;8.73;5.57;;;16.10;99.90;;;;;;5029386;23;20344;-81
2022/07/12 04:13:38;;;;;;;22.27;4.67;;;16.20;99.90;;;;;;5019858;28;20487;-82
2022/07/12 04:16:05;;;;;;;12.50;5.17;;;16.20;99.90;;;;;;5020388;28;20198;-82
2022/07/12 04:18:31;;;;;;;12.47;5.67;;;16.20;99.90;;;;;;5017789;28;20536;-82
2022/07/12 04:20:56;;;;;;;9.40;5.50;;;16.30;99.90;;;;;;5017558;28;20538;-82
2022/07/12 04:23:22;;;;;;;10.07;5.20;;;16.30;99.90;;;;;;5016639;28;20227;-82
2022/07/12 04:25:47;;;;;;;12.13;5.67;;;16.40;99.90;;;;;;5015870;28;20551;-82
2022/07/12 04:28:16;;;;;;;10.67;5.50;;;16.50;99.90;;;;;;5015012;28;20178;-82
2022/07/12 04:30:43;;;;;;;19.80;6.10;;;16.50;99.90;;;;;;5015114;28;20206;-83
2022/07/12 04:33:08;;;;;;;12.20;5.70;;;16.50;99.90;;;;;;5016650;28;20972;-82
2022/07/12 04:35:34;;;;;;;9.50;5.20;;;16.60;99.90;;;;;;5014893;28;20497;-81
2022/07/12 04:38:00;;;;;;;11.93;5.67;;;16.70;99.90;;;;;;5014546;28;20263;-82
2022/07/12 04:40:25;;;;;;;10.03;5.47;;;16.80;83.10;;;;;;5014680;28;20245;-81
2022/07/12 04:42:51;;;;;;;9.23;5.63;;;16.90;24.60;;;;;;5014615;28;20189;-82
2022/07/12 04:45:16;;;;;;;13.30;5.77;;;16.90;1.00;;;;;;5013676;28;20219;-82
2022/07/12 04:47:42;;;;;;;10.60;6.00;;;17.00;1.00;;;;;;5014040;28;20187;-82
2022/07/12 04:50:08;;;;;;;10.83;6.27;;;17.10;1.00;;;;;;5012542;28;20206;-81
2022/07/12 04:52:36;;;;;;;13.17;6.53;;;17.10;1.00;;;;;;5015166;28;20189;-82
2022/07/12 04:55:03;;;;;;;12.33;5.93;;;17.20;1.00;;;;;;5014791;28;20289;-82
2022/07/12 04:57:28;;;;;;;15.90;6.40;;;17.30;1.00;;;;;;5012672;28;20426;-82
2022/07/12 04:59:54;;;;;;;12.53;5.90;;;17.40;1.00;;;;;;5015314;28;20512;-82
2022/07/12 05:02:19;;;;;;;14.10;6.37;;;17.50;99.90;;;;;;5011301;28;20282;-82
2022/07/12 05:04:46;;;;;;;10.93;6.50;;;17.50;99.90;;;;;;5014195;28;20293;-82
2022/07/12 05:07:11;;;;;;;10.70;7.00;;;17.50;99.90;;;;;;5014802;28;20186;-82
2022/07/12 05:09:37;;;;;;;17.70;5.90;;;17.60;99.90;;;;;;5014650;28;20473;-82
2022/07/12 05:12:02;;;;;;;19.17;6.17;;;17.60;99.90;;;;;;5016549;28;20211;-82
2022/07/12 05:14:28;;;;;;;12.43;6.53;;;17.60;8.80;;;;;;5018592;28;20225;-81
2022/07/12 05:16:53;;;;;;;9.50;6.03;;;17.70;1.00;;;;;;5017491;28;20446;-82
2022/07/12 05:19:19;;;;;;;11.40;6.47;;;17.80;1.00;;;;;;5017078;28;20601;-82
2022/07/12 05:21:45;;;;;;;9.00;6.87;;;17.90;1.00;;;;;;5018618;28;20690;-82
2022/07/12 05:24:10;;;;;;;6.73;6.03;;;17.90;99.90;;;;;;5014367;28;20195;-82
2022/07/12 05:26:36;;;;;;;9.40;6.07;;;18.00;99.90;;;;;;5015793;28;20291;-80
2022/07/12 05:29:02;;;;;;;10.00;6.60;;;18.10;99.90;;;;;;5013815;28;20262;-82
2022/07/12 05:31:28;;;;;;;13.63;6.27;;;18.10;1.00;;;;;;5016137;28;20459;-82
2022/07/12 05:33:53;;;;;;;11.83;6.40;;;18.20;1.00;;;;;;5015174;28;20450;-81
2022/07/12 05:36:20;;;;;;;10.00;6.13;;;18.30;1.00;;;;;;5014296;28;20189;-83
2022/07/12 05:38:46;;;;;;;8.53;6.40;;;18.40;1.00;;;;;;5014873;28;20194;-83
2022/07/12 05:41:11;;;;;;;13.30;6.67;;;18.50;99.90;;;;;;5017380;28;20470;-84
2022/07/12 05:43:37;;;;;;;17.13;7.17;;;18.50;99.90;;;;;;5019064;28;20476;-82
2022/07/12 05:46:03;;;;;;;11.80;7.23;;;18.70;99.90;;;;;;5017971;28;20181;-83
2022/07/12 05:48:29;;;;;;;14.10;6.90;;;18.70;99.90;;;;;;5016885;28;20419;-83
2022/07/12 05:50:54;;;;;;;10.57;6.57;;;18.80;99.90;;;;;;5018773;28;20492;-83
2022/07/12 05:53:23;;;;;;;9.60;6.60;;;18.90;99.90;;;;;;5019243;28;20177;-83
2022/07/12 05:55:50;;;;;;;10.50;6.03;;;19.00;1.00;;;;;;5019347;28;20198;-83
2022/07/12 05:58:16;;;;;;;10.80;6.47;;;19.10;1.00;;;;;;5019564;28;20437;-82
2022/07/12 06:00:41;;;;;;;12.43;6.80;;;19.20;99.90;;;;;;5018385;28;20962;-82
2022/07/12 06:03:07;;;;;;;8.33;6.20;;;19.30;99.90;;;;;;5016052;28;20435;-83
2022/07/12 06:05:32;;;;;;;10.83;5.73;;;19.60;1.00;;;;;;5017070;28;20194;-82
2022/07/12 06:07:58;;;;;;;13.43;5.10;;;19.90;99.90;;;;;;5015213;28;20186;-82
2022/07/12 06:10:23;;;;;;;12.30;6.40;;;20.60;1.00;;;;;;5015316;28;20218;-83
2022/07/12 06:12:49;;;;;;;14.83;5.60;;;21.90;99.90;;;;;;5008863;28;20262;-83
2022/07/12 06:15:14;;;;;;;9.53;5.47;;;25.40;99.90;;;;;;5014306;28;20187;-83
2022/07/12 06:17:40;;;;;;;6.30;4.80;;;29.50;99.90;;;;;;5015189;28;20194;-83
2022/07/12 06:20:06;;;;;;;10.60;4.07;;;33.40;99.90;;;;;;5012548;28;20208;-83
2022/07/12 06:22:32;;;;;;;7.83;4.30;;;36.10;99.90;;;;;;5017863;28;20187;-82
2022/07/12 06:24:57;;;;;;;11.67;4.40;;;38.40;99.90;;;;;;5016586;28;20470;-82
2022/07/12 06:27:23;;;;;;;7.53;4.20;;;40.30;99.90;;;;;;5018212;28;20210;-82
2022/07/12 06:29:49;;;;;;;7.93;4.30;;;42.70;99.90;;;;;;5016098;28;20206;-82
2022/07/12 06:32:15;;;;;;;10.80;4.10;;;44.80;99.90;;;;;;5015882;28;20187;-82
2022/07/12 06:34:41;;;;;;;6.33;3.97;;;45.80;99.90;;;;;;5017876;28;20245;-82
2022/07/12 06:37:08;;;;;;;6.23;4.37;;;46.30;99.90;;;;;;5016556;28;20426;-83
2022/07/12 06:39:36;;;;;;;6.60;5.13;;;46.00;99.90;;;;;;5016309;28;20233;-82
2022/07/12 06:42:03;;;;;;;7.50;4.43;;;46.20;99.90;;;;;;5014513;28;20438;-82
2022/07/12 06:44:32;;;;;;;5.83;4.40;;;45.70;99.90;;;;;;5016296;28;20452;-82
2022/07/12 06:46:58;;;;;;;5.07;3.87;;;47.70;99.90;;;;;;5014849;28;20456;-82
2022/07/12 06:49:24;;;;;;;4.90;4.07;;;48.60;99.90;;;;;;5013397;28;20543;-82
2022/07/12 06:51:50;;;;;;;5.80;4.20;;;49.60;99.90;;;;;;5017853;28;20979;-82
2022/07/12 06:54:15;;;;;;;4.43;4.13;;;50.50;99.90;;;;;;5019059;28;20210;-82
2022/07/12 06:56:41;;;;;;;4.67;4.27;;;49.20;99.90;;;;;;5019345;28;20191;-82
2022/07/12 06:59:10;;;;;;;5.80;4.23;;;48.20;99.90;;;;;;5018421;28;21408;-82
2022/07/12 07:01:38;;;;;;;4.20;3.60;;;47.60;96.40;;;;;;5019754;28;20232;-82
2022/07/12 07:04:04;;;;;;;4.67;4.00;;;46.60;92.60;;;;;;5018304;28;20451;-82
2022/07/12 07:06:30;;;;;;;5.70;4.53;;;47.20;91.90;;;;;;5019488;28;20492;-82
2022/07/12 07:08:55;;;;;;;3.70;3.40;;;49.00;93.60;;;;;;5018301;28;20190;-82
2022/07/12 07:11:21;;;;;;;5.70;3.33;;;49.60;92.40;;;;;;5017174;28;20191;-82
2022/07/12 07:13:46;;;;;;;4.23;3.83;;;50.30;91.60;;;;;;5020288;28;20234;-83
2022/07/12 07:16:13;;;;;;;7.30;3.90;;;51.40;90.90;;;;;;5018967;28;20188;-82
2022/07/12 07:18:39;;;;;;;4.33;3.43;;;50.50;83.60;;;;;;5017685;28;20186;-82
2022/07/12 07:21:05;;;;;;;4.60;3.27;;;48.00;68.80;;;;;;5016396;28;20445;-82
2022/07/12 07:23:31;;;;;;;4.90;3.80;;;47.30;67.30;;;;;;5019011;28;20444;-82
2022/07/12 07:25:57;;;;;;;4.20;3.47;;;49.30;73.40;;;;;;5020118;28;20218;-82
2022/07/12 07:28:22;;;;;;;4.07;3.77;;;52.50;81.40;;;;;;5023151;28;20228;-83
2022/07/12 07:30:54;;;;;;;3.80;3.30;;;51.90;73.70;;;;;;5022006;28;20202;-82
2022/07/12 07:33:24;;;;;;;3.85;3.50;;;53.60;76.50;;;;;;5021284;28;20186;-82
2022/07/12 07:35:50;;;;;;;2.85;2.55;;;54.80;78.20;;;;;;5018464;28;20182;-83
2022/07/12 07:38:17;;;;;;;3.53;2.80;;;55.70;77.90;;;;;;5020656;28;20182;-82
2022/07/12 07:40:43;;;;;;;3.67;3.17;;;55.40;71.60;;;;;;5021236;28;20214;-82
2022/07/12 07:43:09;;;;;;;3.05;2.80;;;55.20;69.60;;;;;;5021686;28;20174;-82
2022/07/12 07:45:34;;;;;;;5.10;2.63;;;55.50;65.80;;;;;;5019472;28;20186;-83
2022/07/12 07:48:00;;;;;;;4.93;2.55;;;55.80;63.80;;;;;;5019291;28;20202;-82
2022/07/12 07:50:27;;;;;;;3.47;3.17;;;56.30;63.20;;;;;;5017996;28;20197;-83
2022/07/12 07:52:52;;;;;;;4.30;3.00;;;56.80;61.50;;;;;;5016780;28;20190;-83
2022/07/12 07:55:18;;;;;;;3.80;3.20;;;56.70;58.60;;;;;;5018299;28;20244;-82
2022/07/12 07:57:45;;;;;;;3.33;3.03;;;56.20;54.40;;;;;;5015177;28;20882;-83
2022/07/12 08:00:12;;;;;;;7.53;3.60;;;57.30;55.70;;;;;;5016503;28;20206;-83
2022/07/12 08:02:37;;;;;;;5.97;2.90;;;57.70;55.50;;;;;;5014851;28;20186;-83
2022/07/12 08:05:03;;;;;;;3.20;2.97;;;58.00;54.30;;;;;;5016121;28;20213;-83
2022/07/12 08:07:29;;;;;;;4.38;3.10;;;57.70;50.70;;;;;;5013319;28;20714;-83
2022/07/12 08:09:54;;;;;;;7.20;2.83;;;57.60;49.70;;;;;;5014731;28;20269;-83
2022/07/12 08:12:20;;;;;;;2.63;2.42;;;59.10;52.40;;;;;;5012777;28;20207;-83
2022/07/12 08:14:45;;;;;;;2.88;2.50;;;60.10;53.70;;;;;;5012845;28;20183;-85
2022/07/12 08:17:11;;;;;;;4.80;2.00;;;60.70;54.30;;;;;;5010549;28;20252;-84
2022/07/12 08:19:36;;;;;;;2.75;2.50;;;60.80;52.70;;;;;;5012000;28;20613;-84
2022/07/12 08:22:03;;;;;;;3.00;2.58;;;60.70;50.80;;;;;;5011542;28;20260;-84
2022/07/12 08:24:29;;;;;;;3.35;2.60;;;59.40;45.80;;;;;;5010619;28;20195;-85
2022/07/12 08:26:54;;;;;;;2.42;2.22;;;59.90;45.30;;;;;;5010314;28;20178;-83
2022/07/12 08:29:20;;;;;;;3.38;2.15;;;58.00;39.60;;;;;;5010228;28;20709;-83
2022/07/12 08:31:45;;;;;;;2.13;1.80;;;56.10;34.50;;;;;;5012337;28;20229;-83
2022/07/12 08:34:11;;;;;;;1.90;1.80;;;55.50;33.40;;;;;;5012237;28;20186;-83
2022/07/12 08:36:37;;;;;;;2.00;1.80;;;55.60;32.60;;;;;;5009518;28;20182;-83
2022/07/12 08:39:02;;;;;;;1.70;1.60;;;54.90;30.70;;;;;;5011987;28;20194;-84
2022/07/12 08:41:29;;;;;;;2.75;2.10;;;55.10;30.70;;;;;;5011414;28;20216;-84
2022/07/12 08:43:55;;;;;;;8.40;2.40;;;53.90;29.20;;;;;;5010917;28;20274;-83
2022/07/12 08:46:20;;;;;;;2.27;1.80;;;52.40;27.10;;;;;;5011166;28;20174;-83
2022/07/12 08:48:46;;;;;;;4.70;1.80;;;52.60;27.70;;;;;;5012951;28;20189;-84
2022/07/12 08:51:19;;;;;;;1.77;1.67;;;53.20;29.30;;;;;;5010473;28;20682;-84
2022/07/12 08:53:45;;;;;;;2.37;1.83;;;52.00;26.60;;;;;;5012619;28;20265;-84
2022/07/12 08:56:37;;;;;;;1.80;1.70;;;51.30;25.50;;;;;;5011566;28;20450;-83
2022/07/12 08:59:20;;;;;;;3.73;1.70;;;51.40;26.00;;;;;;5007729;28;20202;-83
2022/07/12 09:01:51;;;;;;;2.20;1.60;;;50.30;24.70;;;;;;5010932;28;20425;-83
2022/07/12 09:04:19;;;;;;;2.43;1.53;;;49.70;24.70;;;;;;5011525;28;20531;-83
2022/07/12 09:06:46;;;;;;;2.20;1.13;;;49.70;24.10;;;;;;5011471;28;20441;-83
2022/07/12 09:09:24;;;;;;;1.53;1.30;;;50.20;25.10;;;;;;5009694;28;20861;-83
2022/07/12 09:11:50;;;;;;;3.23;1.67;;;50.30;26.30;;;;;;5011569;28;20432;-83
2022/07/12 09:14:19;;;;;;;2.90;1.67;;;49.50;25.40;;;;;;5010961;28;20429;-83
2022/07/12 09:17:03;;;;;;;1.40;1.30;;;48.70;24.10;;;;;;5002355;28;20222;-83
2022/07/12 09:19:29;;;;;;;3.07;1.37;;;48.30;24.00;;;;;;5008474;28;20453;-83
2022/07/12 09:21:55;;;;;;;2.40;1.20;;;47.60;23.00;;;;;;5006743;28;20445;-83
2022/07/12 09:24:24;;;;;;;1.20;1.10;;;46.90;22.30;;;;;;4994177;28;21017;-82
2022/07/12 09:26:57;;;;;;;2.53;1.57;;;47.10;23.80;;;;;;5010268;28;20433;-83
2022/07/12 09:29:22;;;;;;;1.70;1.37;;;47.30;24.20;;;;;;5011514;28;20454;-83
2022/07/12 09:37:20;;;;;;;2.60;1.00;;;46.10;22.90;;;;;;5007693;28;21025;-83
2022/07/12 09:39:47;;;;;;;2.70;1.50;;;46.60;24.10;;;;;;5008585;28;20512;-83
2022/07/12 09:42:13;;;;;;;1.97;1.20;;;47.50;26.00;;;;;;5007065;28;20465;-82
2022/07/12 09:44:39;;;;;;;5.23;1.17;;;48.40;27.60;;;;;;5010234;28;20466;-83
2022/07/12 09:47:13;;;;;;;2.57;1.60;;;48.80;28.10;;;;;;5010034;28;20805;-83
2022/07/12 09:49:43;;;;;;;2.00;1.20;;;48.50;27.10;;;;;;5009530;28;20465;-83
2022/07/12 09:52:19;;;;;;;2.00;1.77;;;48.10;26.30;;;;;;5004601;28;20487;-83
2022/07/12 09:54:46;;;;;;;2.17;1.70;;;46.70;23.00;;;;;;5010972;28;20441;-83
2022/07/12 09:57:26;;;;;;;2.80;2.00;;;46.20;22.30;;;;;;5011654;28;20480;-83
2022/07/12 09:59:53;;;;;;;3.80;1.73;;;46.60;23.80;;;;;;5008789;28;20454;-83
2022/07/12 10:02:20;;;;;;;2.17;1.30;;;47.30;25.20;;;;;;5003309;28;20517;-83
2022/07/12 10:04:47;;;;;;;3.40;1.30;;;47.60;25.50;;;;;;5010782;28;20458;-83
2022/07/12 10:07:13;;;;;;;1.40;1.20;;;48.30;27.10;;;;;;5010506;28;20579;-83
2022/07/12 10:09:41;;;;;;;3.03;0.80;;;49.00;27.70;;;;;;5010634;28;20819;-83
2022/07/12 10:12:08;;;;;;;1.10;0.97;;;49.40;28.30;;;;;;5009597;28;20429;-83
2022/07/12 10:14:35;;;;;;;4.03;1.97;;;49.40;39.00;;;;;;5008717;28;20417;-83
2022/07/12 10:17:03;;;;;;;7.70;1.47;;;49.00;26.40;;;;;;5007479;28;20464;-83
2022/07/12 10:19:32;;;;;;;3.17;0.97;;;48.10;24.00;;;;;;5011932;28;20480;-83
2022/07/12 10:22:00;;;;;;;4.10;1.50;;;48.20;23.90;;;;;;5011155;28;20429;-83
2022/07/12 10:24:51;;;;;;;2.93;1.43;;;48.20;24.20;;;;;;5009416;28;20503;-83
2022/07/12 10:27:17;;;;;;;1.03;0.80;;;48.30;23.50;;;;;;5023006;28;20429;-83
2022/07/12 10:29:44;;;;;;;1.20;0.90;;;48.70;24.40;;;;;;5014425;28;20445;-84
2022/07/12 10:32:24;;;;;;;3.00;1.10;;;48.80;23.90;;;;;;5015414;28;20175;-83
2022/07/12 10:34:58;;;;;;;1.77;0.90;;;49.30;24.20;;;;;;5012332;28;20519;-83
2022/07/12 10:37:24;;;;;;;2.07;1.10;;;50.00;24.70;;;;;;5012752;28;20437;-83
2022/07/12 10:40:16;;;;;;;1.97;1.10;;;50.40;25.90;;;;;;5014313;28;20564;-83
2022/07/12 10:43:04;;;;;;;1.47;0.77;;;50.30;24.80;;;;;;5014110;28;20198;-84
2022/07/12 10:45:36;;;;;;;1.07;0.90;;;50.00;23.30;;;;;;5013751;28;20517;-83
2022/07/12 10:48:08;;;;;;;1.67;0.80;;;49.90;22.80;;;;;;5013238;28;20819;-83
2022/07/12 10:50:48;;;;;;;1.10;1.00;;;49.80;22.30;;;;;;5010490;28;20457;-84
2022/07/12 10:53:20;;;;;;;1.03;0.93;;;49.10;20.20;;;;;;5011329;28;20436;-83
2022/07/12 10:56:04;;;;;;;1.20;1.00;;;49.10;19.80;;;;;;5014232;28;20437;-83
2022/07/12 10:58:43;;;;;;;1.10;0.90;;;49.20;19.30;;;;;;5014743;28;20459;-83
2022/07/12 11:01:11;;;;;;;1.77;1.17;;;49.30;19.00;;;;;;5013125;28;20468;-84
2022/07/12 11:03:40;;;;;;;1.20;0.90;;;49.30;19.40;;;;;;5012330;28;20468;-83
2022/07/12 11:06:07;;;;;;;1.20;0.70;;;49.30;18.90;;;;;;5012733;28;20436;-84
2022/07/12 11:08:47;;;;;;;2.50;0.73;;;49.00;17.90;;;;;;5027821;28;20812;-83
2022/07/12 11:11:12;;;;;;;2.37;0.90;;;49.00;18.00;;;;;;5014103;28;21011;-83
2022/07/12 11:13:38;;;;;;;1.87;0.80;;;48.70;17.20;;;;;;5010506;28;20484;-83
2022/07/12 11:16:04;;;;;;;2.80;1.27;;;48.00;15.80;;;;;;5011573;28;20190;-84
2022/07/12 11:18:30;;;;;;;4.80;1.30;;;47.10;14.10;;;;;;5011742;28;20192;-83
2022/07/12 11:21:00;;;;;;;4.60;1.43;;;45.70;12.00;;;;;;5013236;28;20487;-83
2022/07/12 11:23:26;;;;;;;1.10;0.90;;;45.20;11.70;;;;;;5015051;28;20956;-83
2022/07/12 11:26:00;;;;;;;2.07;1.20;;;44.80;11.90;;;;;;5015012;28;20441;-83
2022/07/12 11:28:27;;;;;;;4.03;0.80;;;43.80;12.10;;;;;;5016647;28;20503;-83
2022/07/12 11:30:54;;;;;;;1.20;1.03;;;43.80;11.10;;;;;;5017700;28;20476;-83
2022/07/12 11:33:25;;;;;;;1.93;1.00;;;43.80;14.00;;;;;;5017220;28;20485;-83
2022/07/12 11:35:51;;;;;;;3.00;1.10;;;44.20;13.20;;;;;;5016585;28;20800;-83
2022/07/12 11:38:25;;;;;;;2.37;1.10;;;44.60;14.90;;;;;;5016358;28;20450;-83
2022/07/12 11:40:59;;;;;;;2.13;1.20;;;44.50;13.90;;;;;;5016216;28;20473;-83
2022/07/12 11:43:25;;;;;;;1.13;1.03;;;44.70;14.60;;;;;;5013239;28;20533;-83
2022/07/12 11:45:53;;;;;;;1.73;1.07;;;44.70;15.30;;;;;;5015738;28;20873;-83
2022/07/12 11:48:19;;;;;;;4.17;1.07;;;45.00;15.10;;;;;;5015595;28;20440;-83
2022/07/12 11:50:46;;;;;;;1.97;0.90;;;45.30;15.60;;;;;;5016267;28;20449;-83
2022/07/12 11:53:34;;;;;;;1.87;1.10;;;44.90;14.90;;;;;;5016940;28;20440;-83
2022/07/12 11:56:02;;;;;;;2.37;1.23;;;44.90;14.90;;;;;;5014193;28;20434;-83
2022/07/12 11:58:28;;;;;;;2.70;1.20;;;45.10;15.00;;;;;;5013627;28;20434;-83
2022/07/12 12:00:55;;;;;;;2.17;0.87;;;45.10;15.60;;;;;;5014374;28;20453;-83
2022/07/12 12:03:22;;;;;;;2.40;1.00;;;44.70;15.20;;;;;;5016938;28;20426;-82
2022/07/12 12:05:49;;;;;;;3.33;1.00;;;44.60;15.10;;;;;;5015951;28;20450;-83
2022/07/12 12:08:16;;;;;;;2.23;1.00;;;44.50;15.60;;;;;;5016148;28;20422;-83
2022/07/12 12:10:42;;;;;;;1.67;1.10;;;43.90;13.90;;;;;;5015458;28;20481;-82
2022/07/12 12:13:16;;;;;;;2.93;1.20;;;43.40;13.10;;;;;;5010448;28;20453;-82
2022/07/12 12:15:51;;;;;;;1.70;1.40;;;43.00;12.30;;;;;;5014600;28;20441;-82
2022/07/12 12:18:16;;;;;;;3.20;1.30;;;42.80;12.60;;;;;;5016195;28;20425;-82
2022/07/12 12:20:42;;;;;;;1.17;1.07;;;43.00;13.70;;;;;;5015457;28;20523;-83
2022/07/12 12:23:18;;;;;;;1.73;1.00;;;43.20;13.90;;;;;;5015795;28;20182;-82
2022/07/12 12:25:45;;;;;;;1.27;1.10;;;43.00;14.20;;;;;;5016311;28;20277;-83
2022/07/12 12:28:12;;;;;;;2.10;1.40;;;42.80;14.30;;;;;;5015624;28;20425;-83
2022/07/12 12:30:50;;;;;;;2.80;1.30;;;42.50;13.50;;;;;;5017563;28;20826;-82
2022/07/12 12:33:38;;;;;;;1.80;1.07;;;42.20;13.70;;;;;;5016540;28;20418;-82
2022/07/12 12:36:20;;;;;;;2.37;1.60;;;41.60;12.60;;;;;;5017684;28;20483;-82
2022/07/12 12:38:46;;;;;;;1.37;1.10;;;41.70;13.50;;;;;;5017137;28;20437;-83
2022/07/12 12:41:13;;;;;;;2.27;1.00;;;41.70;13.40;;;;;;5015698;28;20437;-82
2022/07/12 12:43:39;;;;;;;1.17;1.00;;;41.60;12.50;;;;;;5017324;28;20473;-82
2022/07/12 12:46:05;;;;;;;2.43;1.40;;;41.10;12.30;;;;;;5018293;28;20441;-82
2022/07/12 12:48:32;;;;;;;2.50;1.80;;;40.80;11.50;;;;;;5020569;28;20449;-82
2022/07/12 12:51:08;;;;;;;1.40;1.10;;;40.50;11.30;;;;;;5018987;28;20199;-82
2022/07/12 12:53:44;;;;;;;2.23;1.20;;;40.30;11.50;;;;;;5016772;28;21005;-82
2022/07/12 12:56:14;;;;;;;1.37;1.27;;;39.80;11.10;;;;;;5018784;28;20469;-82
2022/07/12 12:58:40;;;;;;;2.93;1.97;;;39.70;11.50;;;;;;5017137;28;20453;-82